Time;durP1;ratioP1;P1;durP2;ratioP2;P2;SDS_P1;SDS_P2;PMS_P1;PMS_P2;Temp;Humidity;BMP_temperature;BMP_pressure;BME280_temperature;BME280_humidity;BME280_pressure;Samples;Min_cycle;Max_cycle;Signal;HPM_P1;HPM_P2
2023/12/29 00:05:18;;;;;;;3.80;2.90;;;;;;;10.17;94.61;99173.78;7261144;40;20276;31
2023/12/29 00:15:58;;;;;;;4.80;3.23;;;;;;;10.20;93.97;99178.00;7278666;40;20280;31
2023/12/29 00:26:36;;;;;;;5.43;4.33;;;;;;;10.16;94.56;99166.72;7274983;39;20761;31
2023/12/29 00:37:02;;;;;;;7.03;5.40;;;;;;;9.85;96.46;99173.66;7288666;39;20736;31
2023/12/29 00:47:40;;;;;;;5.20;3.70;;;;;;;9.87;96.28;99166.25;7307306;39;21337;31
2023/12/29 00:58:20;;;;;;;3.30;3.00;;;;;;;10.05;94.60;99158.06;7298771;39;20265;31
2023/12/29 01:03:56;;;;;;;5.60;3.10;;;;;;;10.11;93.76;99158.25;7256033;40;20244;31
2023/12/29 01:09:32;;;;;;;5.50;3.05;;;;;;;10.22;93.60;99165.22;7251993;40;20239;31
2023/12/29 01:15:07;;;;;;;4.15;2.87;;;;;;;10.23;92.33;99146.19;7197984;40;20859;31
2023/12/29 01:20:41;;;;;;;2.75;2.40;;;;;;;10.24;91.86;99147.03;7268691;40;20705;31
2023/12/29 01:26:17;;;;;;;4.53;3.00;;;;;;;10.23;91.40;99154.25;7257719;40;20260;31
2023/12/29 01:31:52;;;;;;;2.90;2.60;;;;;;;10.22;90.65;99152.56;7208545;40;20265;31
2023/12/29 01:37:28;;;;;;;3.90;2.83;;;;;;;10.22;89.94;99149.88;7189616;40;20316;31
2023/12/29 01:43:04;;;;;;;4.50;2.65;;;;;;;10.21;90.07;99158.12;7185428;40;20261;31
2023/12/29 01:48:39;;;;;;;3.60;2.40;;;;;;;10.22;90.17;99152.56;7205742;40;20380;31
2023/12/29 01:54:15;;;;;;;3.20;2.55;;;;;;;10.21;89.13;99141.97;7244543;40;20658;31
2023/12/29 01:59:51;;;;;;;4.45;2.65;;;;;;;10.19;87.88;99147.53;7249634;40;20415;31
2023/12/29 02:05:26;;;;;;;3.35;2.65;;;;;;;10.18;87.66;99107.31;7245749;40;20540;31
2023/12/29 02:11:03;;;;;;;3.90;2.40;;;;;;;10.15;87.53;99104.88;7219129;40;20265;31
2023/12/29 02:16:38;;;;;;;4.10;2.50;;;;;;;10.11;87.64;99104.38;7248709;40;20228;31
2023/12/29 02:21:59;;;;;;;2.97;2.57;;;;;;;10.14;88.18;99104.03;7276232;40;20230;31
2023/12/29 02:27:39;;;;;;;4.50;2.70;;;;;;;10.11;88.10;99109.78;7276026;40;20288;31
2023/12/29 02:33:14;;;;;;;3.80;2.65;;;;;;;10.10;87.73;99091.91;7279561;40;20245;31
2023/12/29 02:38:50;;;;;;;3.25;2.40;;;;;;;10.10;87.90;99107.22;7246801;40;20399;31
2023/12/29 02:49:31;;;;;;;3.33;2.80;;;;;;;10.14;88.13;99078.97;7245369;39;20732;31
2023/12/29 02:54:51;;;;;;;4.00;2.93;;;;;;;10.17;88.23;99094.84;7241219;40;20350;31
2023/12/29 03:05:30;;;;;;;3.63;2.77;;;;;;;10.15;87.78;99083.34;7294930;39;20693;31
2023/12/29 03:16:10;;;;;;;3.70;2.35;;;;;;;10.22;87.83;99085.22;7322815;39;20390;31
2023/12/29 03:21:48;;;;;;;3.90;3.00;;;;;;;10.20;87.63;99081.88;7298859;39;20374;31
2023/12/29 03:27:08;;;;;;;3.40;2.70;;;;;;;10.26;87.60;99092.00;7296412;39;20620;31
2023/12/29 03:32:28;;;;;;;3.57;2.80;;;;;;;10.26;88.00;99080.38;7298368;40;20237;31
2023/12/29 03:38:04;;;;;;;4.05;2.37;;;;;;;10.25;87.71;99087.63;7335682;39;20259;31
2023/12/29 03:43:39;;;;;;;4.00;2.70;;;;;;;10.26;87.97;99092.00;7326616;39;20374;31
2023/12/29 03:49:11;;;;;;;2.90;2.50;;;;;;;10.25;87.33;99086.75;7311898;39;20246;31
2023/12/29 03:54:48;;;;;;;3.95;2.60;;;;;;;10.26;87.56;99075.00;7287066;39;20256;31
2023/12/29 04:00:24;;;;;;;4.97;3.00;;;;;;;10.27;87.57;99084.72;7227422;40;20462;31
2023/12/29 04:05:59;;;;;;;2.90;2.40;;;;;;;10.27;87.61;99082.88;7199021;40;20250;31
2023/12/29 04:11:36;;;;;;;3.17;2.70;;;;;;;10.30;87.50;99073.63;7215894;40;20247;31
2023/12/29 04:16:56;;;;;;;3.07;2.50;;;;;;;10.34;88.05;99085.75;7175545;40;20262;31
2023/12/29 04:22:17;;;;;;;2.80;2.23;;;;;;;10.37;88.11;99083.56;7244081;40;20317;31
2023/12/29 04:27:53;;;;;;;2.50;2.00;;;;;;;10.35;88.33;99095.53;7269947;40;20257;31
2023/12/29 04:33:13;;;;;;;2.70;2.33;;;;;;;10.38;88.09;99095.19;7265247;40;20317;31
2023/12/29 04:38:34;;;;;;;3.10;2.30;;;;;;;10.39;89.06;99086.09;7267180;40;20350;31
2023/12/29 04:44:10;;;;;;;2.23;2.03;;;;;;;10.32;89.92;99093.16;7353031;39;20258;31
2023/12/29 04:49:45;;;;;;;2.60;2.20;;;;;;;10.32;90.06;99093.16;7306175;39;20236;31
2023/12/29 04:55:20;;;;;;;4.10;2.40;;;;;;;10.22;90.35;99090.62;7264299;40;20678;31
2023/12/29 05:00:54;;;;;;;2.63;2.13;;;;;;;10.23;89.95;99092.31;7219949;40;20247;31
2023/12/29 05:11:34;;;;;;;2.47;1.90;;;;;;;10.21;90.37;99078.19;7301424;39;20723;31
2023/12/29 05:22:17;;;;;;;2.65;2.00;;;;;;;10.18;89.26;99069.59;7322326;39;20283;31
2023/12/29 05:32:52;;;;;;;2.87;1.77;;;;;;;10.12;89.21;99075.59;7296145;39;20269;31
2023/12/29 05:38:29;;;;;;;3.25;2.00;;;;;;;10.08;88.24;99074.25;7272968;40;20242;31
2023/12/29 05:43:49;;;;;;;2.77;2.57;;;;;;;10.09;87.93;99078.66;7275257;40;20402;31
2023/12/29 05:54:30;;;;;;;2.45;1.90;;;;;;;10.03;87.50;99079.28;7329929;39;20631;31
2023/12/29 05:59:51;;;;;;;2.75;1.90;;;;;;;10.04;87.13;99078.28;7283432;40;20248;31
2023/12/29 06:05:26;;;;;;;2.60;2.10;;;;;;;10.00;86.92;99091.25;7284527;39;20374;31
2023/12/29 06:11:03;;;;;;;2.37;1.70;;;;;;;10.02;87.13;99089.22;7280756;40;20297;31
2023/12/29 06:16:38;;;;;;;2.10;1.90;;;;;;;10.00;86.60;99103.88;7201991;40;20243;31
2023/12/29 06:22:11;;;;;;;2.20;1.80;;;;;;;10.02;87.33;99102.69;6986285;40;20273;31
2023/12/29 06:27:48;;;;;;;2.10;1.80;;;;;;;10.04;86.55;99083.69;7184900;40;20737;31
2023/12/29 06:33:23;;;;;;;2.30;2.05;;;;;;;10.04;86.58;99086.37;7226377;40;20253;31
2023/12/29 06:38:59;;;;;;;2.77;1.93;;;;;;;10.02;86.71;99083.00;7212719;40;20246;31
2023/12/29 06:44:35;;;;;;;3.43;1.90;;;;;;;10.00;86.83;99080.50;7275797;39;20233;31
2023/12/29 06:49:57;;;;;;;2.20;1.90;;;;;;;10.03;87.12;99080.16;7290329;39;20304;31
2023/12/29 06:55:16;;;;;;;2.90;1.60;;;;;;;10.05;86.72;99080.00;7308194;39;20284;31
2023/12/29 07:05:54;;;;;;;3.20;2.40;;;;;;;10.02;86.15;99062.28;7316662;39;20261;31
2023/12/29 07:11:16;;;;;;;2.60;1.83;;;;;;;10.07;87.03;99062.66;7363605;39;20245;31
2023/12/29 07:16:36;;;;;;;2.25;1.75;;;;;;;10.07;86.97;99073.41;7358931;39;20275;31
2023/12/29 07:22:12;;;;;;;2.45;1.90;;;;;;;10.08;86.89;99074.25;7338611;39;20388;31
2023/12/29 07:27:49;;;;;;;2.83;1.87;;;;;;;10.10;86.37;99080.31;7273867;40;20242;31
2023/12/29 07:33:10;;;;;;;2.95;2.00;;;;;;;10.18;85.67;99080.38;7218546;40;20243;31
2023/12/29 07:38:44;;;;;;;4.03;1.70;;;;;;;10.16;86.01;99085.91;7218313;40;20376;31
2023/12/29 07:44:06;;;;;;;2.00;1.70;;;;;;;10.23;86.31;99086.06;7223173;40;20256;31
2023/12/29 07:49:27;;;;;;;3.67;1.83;;;;;;;10.25;86.24;99089.47;7259280;40;20241;31
2023/12/29 07:55:02;;;;;;;1.60;1.50;;;;;;;10.26;86.16;99080.38;7242430;40;20249;31
2023/12/29 08:00:38;;;;;;;2.53;1.90;;;;;;;10.29;86.43;99077.34;7244637;40;20375;31
2023/12/29 08:05:58;;;;;;;2.00;1.50;;;;;;;10.34;85.84;99088.44;7244102;40;20246;31
2023/12/29 08:11:33;;;;;;;1.85;1.50;;;;;;;10.31;85.90;99086.91;7278646;39;20274;31
2023/12/29 08:17:08;;;;;;;2.50;1.70;;;;;;;10.35;85.63;99084.75;7261833;40;20255;31
2023/12/29 08:22:44;;;;;;;1.90;1.53;;;;;;;10.34;85.39;99083.06;7248586;40;20242;31
2023/12/29 08:28:19;;;;;;;1.70;1.40;;;;;;;10.36;85.58;99095.34;7246791;40;20261;31
2023/12/29 08:33:50;;;;;;;3.35;1.50;;;;;;;10.44;84.40;99097.22;7227890;40;20261;31
2023/12/29 08:39:25;;;;;;;2.30;1.60;;;;;;;10.44;83.99;99089.13;7246114;40;20451;31
2023/12/29 08:45:02;;;;;;;1.75;1.25;;;;;;;10.47;82.96;99094.19;7228878;40;20237;31
2023/12/29 08:50:22;;;;;;;2.30;1.30;;;;;;;10.52;83.50;99109.84;7264533;40;20383;31
2023/12/29 08:55:58;;;;;;;2.10;1.30;;;;;;;10.51;82.75;99106.31;7309136;39;20236;31
2023/12/29 09:01:34;;;;;;;1.00;0.90;;;;;;;10.56;82.14;99112.03;7289951;39;20316;31
2023/12/29 09:06:55;;;;;;;1.87;1.47;;;;;;;10.58;83.02;99130.72;7296988;39;20242;31
2023/12/29 09:12:15;;;;;;;1.87;1.50;;;;;;;10.58;83.23;99110.00;7305897;39;20277;31
2023/12/29 09:17:51;;;;;;;1.20;1.10;;;;;;;10.60;82.76;99115.22;7268220;40;21353;31
2023/12/29 09:23:26;;;;;;;1.90;1.30;;;;;;;10.71;83.04;99106.78;7279671;39;20321;31
2023/12/29 09:29:11;;;;;;;;;;;;;;;;;;;;;
2023/12/29 09:34:38;;;;;;;2.17;1.60;;;;;;;10.83;81.52;99118.94;7237508;40;20332;31
2023/12/29 09:39:58;;;;;;;2.50;1.60;;;;;;;10.94;80.73;99123.13;7217860;40;20400;31
2023/12/29 09:45:33;;;;;;;2.77;1.60;;;;;;;10.99;80.57;99120.75;7263248;40;20256;31
2023/12/29 09:51:09;;;;;;;1.83;1.40;;;;;;;11.07;79.59;99115.34;7277654;40;20323;31
2023/12/29 09:56:44;;;;;;;3.45;2.65;;;;;;;11.04;80.03;99108.44;7276871;40;20273;31
2023/12/29 10:02:19;;;;;;;1.90;1.70;;;;;;;11.07;80.08;99113.47;7230969;40;20376;31
2023/12/29 10:07:51;;;;;;;1.75;1.50;;;;;;;11.14;79.49;99092.06;7239804;40;20292;31
2023/12/29 10:13:28;;;;;;;1.97;1.30;;;;;;;11.26;79.77;99091.53;7212710;40;20849;31
2023/12/29 10:19:01;;;;;;;4.22;1.20;;;;;;;11.34;78.21;99079.84;7197702;40;20258;31
2023/12/29 10:24:37;;;;;;;4.65;2.40;;;;;;;11.42;78.33;99074.44;7208844;40;20241;31
2023/12/29 10:29:57;;;;;;;2.07;1.57;;;;;;;11.45;78.29;99063.28;7228061;40;20398;31
2023/12/29 10:35:34;;;;;;;2.93;2.10;;;;;;;11.48;78.05;99062.09;7225493;40;20259;31
2023/12/29 10:41:09;;;;;;;1.37;1.20;;;;;;;11.52;77.48;99056.16;7223354;40;20301;31
2023/12/29 10:46:44;;;;;;;1.53;1.33;;;;;;;11.56;77.41;99052.09;7314022;39;20251;31
2023/12/29 10:52:26;;;;;;;1.60;1.30;;;;;;;11.56;77.46;99052.09;7256714;40;20238;31
2023/12/29 10:58:03;;;;;;;3.10;1.50;;;;;;;11.59;78.42;99061.69;7217770;40;20243;31
2023/12/29 11:03:38;;;;;;;2.23;1.20;;;;;;;11.60;78.23;99048.03;7197715;40;20278;31
2023/12/29 11:08:58;;;;;;;1.80;1.40;;;;;;;11.66;78.39;99050.03;7150185;40;20274;31
2023/12/29 11:14:35;;;;;;;2.10;1.40;;;;;;;11.67;78.27;99051.69;7247034;40;20406;31
2023/12/29 11:20:10;;;;;;;2.45;1.70;;;;;;;11.76;78.71;99057.09;7248609;40;20375;31
2023/12/29 11:25:46;;;;;;;2.20;1.60;;;;;;;11.82;78.37;99061.78;7200561;40;20298;31
2023/12/29 11:31:22;;;;;;;1.60;1.30;;;;;;;11.80;78.26;99050.31;7218989;40;20305;31
2023/12/29 11:36:57;;;;;;;1.60;1.50;;;;;;;11.82;77.39;99040.16;7208802;40;20258;31
2023/12/29 11:42:31;;;;;;;1.65;1.30;;;;;;;11.85;77.79;99037.94;7217600;40;20290;31
2023/12/29 11:48:02;;;;;;;2.17;1.50;;;;;;;11.88;76.85;99026.81;7289433;39;20606;31
2023/12/29 11:53:40;;;;;;;1.90;1.45;;;;;;;11.85;76.76;99029.84;7254593;40;20299;31
2023/12/29 11:59:18;;;;;;;1.67;1.50;;;;;;;11.78;76.63;99017.25;7238681;40;20316;31
2023/12/29 12:04:54;;;;;;;2.27;1.90;;;;;;;11.77;76.75;99024.50;7226003;40;20711;31
2023/12/29 12:10:45;;;;;;;2.50;2.10;;;;;;;11.74;77.48;99008.66;7228608;40;20328;31
2023/12/29 12:16:03;;;;;;;2.00;1.70;;;;;;;11.75;77.43;99010.34;7191000;40;20341;31
2023/12/29 12:21:34;;;;;;;2.63;1.90;;;;;;;11.69;77.80;99005.63;7215988;40;20239;31
2023/12/29 12:27:09;;;;;;;2.00;1.80;;;;;;;11.67;78.24;98997.69;7074449;40;21195;31
2023/12/29 12:32:44;;;;;;;2.10;1.90;;;;;;;11.64;78.37;99003.47;7263188;40;20694;31
2023/12/29 12:38:23;;;;;;;2.10;1.80;;;;;;;11.61;77.96;99011.06;7256913;40;20645;31
2023/12/29 12:43:56;;;;;;;1.90;1.70;;;;;;;11.62;78.04;99008.22;7213737;40;21110;31
2023/12/29 12:54:31;;;;;;;2.20;2.00;;;;;;;11.64;77.66;98998.06;7300361;39;21739;31
2023/12/29 13:05:08;;;;;;;2.60;1.70;;;;;;;11.76;77.20;99003.09;7286628;39;21320;31
2023/12/29 13:10:41;;;;;;;3.03;1.43;;;;;;;11.73;77.25;99018.63;7298714;39;20253;31
2023/12/29 13:16:02;;;;;;;2.07;1.40;;;;;;;11.70;77.01;99012.72;7310647;39;20614;31
2023/12/29 13:21:23;;;;;;;2.47;2.03;;;;;;;11.70;78.14;99010.84;7297132;39;20279;31
2023/12/29 13:26:56;;;;;;;3.17;1.60;;;;;;;11.62;78.61;98999.25;7233811;40;20847;31
2023/12/29 13:37:37;;;;;;;2.73;2.10;;;;;;;11.54;78.69;99010.13;7203171;40;20714;31
2023/12/29 13:43:12;;;;;;;2.80;2.10;;;;;;;11.51;79.47;99023.94;7212263;40;20253;31
2023/12/29 13:48:47;;;;;;;2.20;1.80;;;;;;;11.46;79.41;99010.97;7217335;40;20231;31
2023/12/29 13:54:07;;;;;;;4.97;2.57;;;;;;;11.54;80.52;99016.31;7178402;40;20234;31
2023/12/29 13:59:49;;;;;;;3.10;2.30;;;;;;;11.46;81.61;99010.97;7163419;40;20694;31
2023/12/29 14:05:27;;;;;;;2.15;1.80;;;;;;;11.41;81.55;99021.47;7197727;40;20284;31
2023/12/29 14:11:03;;;;;;;3.13;2.10;;;;;;;11.36;81.58;99026.56;7230716;40;20705;31
2023/12/29 14:16:40;;;;;;;3.70;1.87;;;;;;;11.24;81.87;99025.25;7208918;40;20242;31
2023/12/29 14:22:16;;;;;;;3.10;2.10;;;;;;;11.14;82.16;99021.94;7198311;40;20353;31
2023/12/29 14:27:38;;;;;;;2.40;1.60;;;;;;;11.10;83.09;99047.59;7159242;40;20301;31
2023/12/29 14:33:15;;;;;;;2.53;1.70;;;;;;;11.02;83.75;99061.91;7191103;40;21296;31
2023/12/29 14:38:50;;;;;;;3.40;1.90;;;;;;;10.98;83.42;99047.09;7244460;40;21547;31
2023/12/29 14:44:23;;;;;;;3.73;2.27;;;;;;;10.97;83.51;99041.91;7255253;40;20273;31
2023/12/29 14:49:58;;;;;;;5.00;2.10;;;;;;;10.95;83.74;99043.91;7257962;40;20324;31
2023/12/29 14:55:35;;;;;;;2.90;2.10;;;;;;;10.94;84.49;99042.22;7195007;40;20691;31
2023/12/29 15:00:56;;;;;;;2.67;2.00;;;;;;;10.87;84.38;99034.00;7198378;40;20761;31
2023/12/29 15:06:34;;;;;;;2.47;1.70;;;;;;;10.83;84.50;99025.41;7216719;40;20251;31
2023/12/29 15:11:54;;;;;;;5.05;1.80;;;;;;;10.81;84.86;99048.16;7203636;40;20256;31
2023/12/29 15:17:31;;;;;;;2.35;1.50;;;;;;;10.73;83.98;99030.16;7247816;40;20670;31
2023/12/29 15:23:08;;;;;;;4.70;1.70;;;;;;;10.68;84.15;99027.13;7271581;40;20589;31
2023/12/29 15:28:28;;;;;;;2.00;1.60;;;;;;;10.68;83.93;99027.13;7277505;39;21382;31
2023/12/29 15:33:48;;;;;;;5.10;1.60;;;;;;;10.62;83.43;99035.06;7308435;39;20244;31
2023/12/29 15:39:25;;;;;;;4.63;2.20;;;;;;;10.57;83.53;99023.94;7306548;39;20242;31
2023/12/29 15:44:42;;;;;;;3.00;1.60;;;;;;;10.57;83.37;99022.09;7266372;40;20252;31
2023/12/29 15:50:03;;;;;;;1.97;1.50;;;;;;;10.55;83.72;99021.41;7267453;40;20241;31
2023/12/29 15:55:40;;;;;;;3.13;1.67;;;;;;;10.48;83.74;99012.34;7328443;39;21324;31
2023/12/29 16:01:16;;;;;;;2.60;1.40;;;;;;;10.54;82.81;99014.34;7297214;39;20662;31
2023/12/29 16:06:35;;;;;;;2.40;1.80;;;;;;;10.53;82.55;99007.25;7284824;39;20242;31
2023/12/29 16:12:09;;;;;;;4.80;2.30;;;;;;;10.51;82.15;98994.97;7288585;39;20264;31
2023/12/29 16:17:44;;;;;;;4.90;2.05;;;;;;;10.53;82.27;98990.28;7264706;40;20250;31
2023/12/29 16:23:04;;;;;;;2.50;1.80;;;;;;;10.55;81.51;98999.00;7201492;40;20474;31
2023/12/29 16:28:38;;;;;;;1.90;1.60;;;;;;;10.51;81.37;98998.50;7211565;40;20298;31
2023/12/29 16:39:17;;;;;;;4.25;2.15;;;;;;;10.53;80.20;98991.09;7291771;39;20265;31
2023/12/29 16:44:53;;;;;;;3.90;1.73;;;;;;;10.57;79.73;98997.84;7305181;39;20226;31
2023/12/29 16:50:29;;;;;;;3.90;1.70;;;;;;;10.61;80.08;99004.56;7267116;39;20320;31
2023/12/29 16:56:04;;;;;;;5.70;2.80;;;;;;;10.63;79.01;98985.50;7256620;40;20347;31
2023/12/29 17:06:44;;;;;;;2.80;1.70;;;;;;;10.66;78.77;98999.47;7275401;39;20785;31
2023/12/29 17:17:21;;;;;;;4.90;3.30;;;;;;;10.67;78.70;98997.63;7339703;39;21233;31
2023/12/29 17:22:58;;;;;;;5.20;3.37;;;;;;;10.60;78.27;98989.41;7303842;40;20257;31
2023/12/29 17:28:18;;;;;;;6.30;3.47;;;;;;;10.60;79.04;98967.84;7264327;40;20257;31
2023/12/29 17:33:48;;;;;;;4.60;2.50;;;;;;;10.60;77.75;98977.78;7299005;40;20276;31
2023/12/29 17:39:24;;;;;;;2.30;1.70;;;;;;;10.57;77.32;98976.28;7296700;39;20413;31
2023/12/29 17:44:44;;;;;;;6.00;3.60;;;;;;;10.60;76.75;98981.31;7247241;40;20337;31
2023/12/29 17:50:21;;;;;;;2.05;1.70;;;;;;;10.59;76.47;98963.47;7233583;40;20414;31
2023/12/29 17:56:02;;;;;;;1.50;1.20;;;;;;;10.58;75.99;98971.72;7252942;40;20387;31
2023/12/29 18:01:34;;;;;;;2.57;1.60;;;;;;;10.59;75.65;98968.84;7207247;40;20690;31
2023/12/29 18:07:09;;;;;;;3.30;1.50;;;;;;;10.58;75.27;98958.22;7244146;40;20270;31
2023/12/29 18:12:43;;;;;;;7.73;3.93;;;;;;;10.60;74.40;98948.97;7276758;39;21438;31
2023/12/29 18:23:23;;;;;;;3.77;2.00;;;;;;;10.60;75.00;98958.91;7257408;40;20792;31
2023/12/29 18:34:03;;;;;;;2.40;1.50;;;;;;;10.57;74.26;98970.06;7280736;39;20803;31
2023/12/29 18:44:29;;;;;;;2.05;1.20;;;;;;;10.66;73.66;98972.53;7342534;39;20277;31
2023/12/29 18:50:05;;;;;;;4.90;1.95;;;;;;;10.64;74.15;98982.66;7295013;39;20405;31
2023/12/29 19:00:31;;;;;;;4.07;1.80;;;;;;;10.69;74.25;98971.34;7216432;40;20886;31
2023/12/29 19:11:11;;;;;;;3.60;2.30;;;;;;;10.70;74.01;98979.28;7302101;39;20329;31
2023/12/29 19:16:47;;;;;;;4.25;1.90;;;;;;;10.72;74.31;98984.47;7280967;40;20763;31
2023/12/29 19:22:08;;;;;;;3.87;1.70;;;;;;;10.77;74.62;98984.81;7197859;40;21309;31
2023/12/29 19:27:44;;;;;;;3.95;2.00;;;;;;;10.78;73.48;98987.34;7257304;40;20261;31
2023/12/29 19:33:05;;;;;;;3.50;2.10;;;;;;;10.79;73.92;98980.09;7246760;40;20275;31
2023/12/29 19:38:25;;;;;;;3.22;1.94;;;;;;;10.80;73.81;98981.75;7093806;40;20237;31
2023/12/29 19:43:58;;;;;;;3.20;1.40;;;;;;;10.79;73.78;98970.13;7252827;40;20249;31
2023/12/29 19:49:19;;;;;;;2.80;1.20;;;;;;;10.85;73.30;98972.13;7268997;40;20403;31
2023/12/29 19:54:39;;;;;;;3.10;1.40;;;;;;;10.84;73.73;98965.06;7277098;40;20244;31
2023/12/29 20:00:14;;;;;;;2.93;1.50;;;;;;;10.83;73.78;98976.88;7259669;40;20230;31
2023/12/29 20:05:50;;;;;;;3.30;1.53;;;;;;;10.80;74.44;98974.50;7253717;40;20689;31
2023/12/29 20:11:26;;;;;;;2.97;1.63;;;;;;;10.87;73.59;99003.50;7272051;39;20708;31
2023/12/29 20:17:02;;;;;;;3.10;1.40;;;;;;;10.85;73.97;98984.78;7216093;40;20235;31
2023/12/29 20:22:37;;;;;;;2.93;1.17;;;;;;;10.84;74.25;98985.78;7206773;40;20399;31
2023/12/29 20:27:58;;;;;;;1.60;1.20;;;;;;;10.89;73.75;98980.72;7177622;40;20258;31
2023/12/29 20:33:33;;;;;;;2.95;1.30;;;;;;;10.87;74.15;98968.44;7155613;40;20243;31
2023/12/29 20:39:09;;;;;;;1.80;0.90;;;;;;;10.86;74.55;98972.97;7178091;40;20249;31
2023/12/29 20:44:30;;;;;;;1.50;1.35;;;;;;;10.90;74.07;98944.66;7251715;40;20375;31
2023/12/29 20:50:06;;;;;;;2.55;1.40;;;;;;;10.90;73.97;98954.59;7282140;39;20355;31
2023/12/29 20:55:27;;;;;;;2.70;1.50;;;;;;;10.96;74.36;98954.75;7247511;39;20244;31
2023/12/29 21:01:01;;;;;;;2.87;1.70;;;;;;;11.01;73.72;98951.53;7312341;39;20260;31
2023/12/29 21:06:35;;;;;;;3.20;1.30;;;;;;;10.97;73.14;98950.22;7314493;39;20271;31
2023/12/29 21:11:56;;;;;;;5.50;1.85;;;;;;;10.99;73.37;98949.00;7254268;40;20246;31
2023/12/29 21:17:30;;;;;;;1.67;1.13;;;;;;;11.04;72.98;98978.13;7218112;40;20340;31
2023/12/29 21:23:06;;;;;;;3.60;1.30;;;;;;;11.01;73.77;98956.94;7249437;40;20391;31
2023/12/29 21:28:28;;;;;;;2.60;1.20;;;;;;;11.00;74.10;98957.94;7226309;40;20258;31
2023/12/29 21:34:03;;;;;;;2.35;1.25;;;;;;;11.03;73.91;98957.56;7255211;40;20250;31
2023/12/29 21:44:45;;;;;;;3.40;1.30;;;;;;;11.00;73.73;98936.38;7257127;40;20703;31
2023/12/29 21:50:18;;;;;;;2.35;1.30;;;;;;;10.97;73.85;98959.09;7258825;40;20249;31
2023/12/29 21:55:38;;;;;;;4.93;1.33;;;;;;;11.03;74.09;98973.75;7277139;40;20240;31
2023/12/29 22:01:13;;;;;;;2.60;1.50;;;;;;;11.00;74.15;98976.81;7275937;40;20672;31
2023/12/29 22:06:49;;;;;;;3.77;1.30;;;;;;;10.95;75.39;98990.81;7267764;40;20308;31
2023/12/29 22:12:11;;;;;;;2.30;1.30;;;;;;;10.90;76.62;98966.22;7276799;40;20253;31
2023/12/29 22:17:45;;;;;;;3.70;1.70;;;;;;;10.83;77.53;98976.03;7242199;40;20305;31
2023/12/29 22:23:05;;;;;;;4.05;1.70;;;;;;;10.81;77.25;98997.78;7245162;40;20219;31
2023/12/29 22:28:41;;;;;;;1.80;1.50;;;;;;;10.82;77.69;98977.03;7262181;39;20245;31
2023/12/29 22:34:16;;;;;;;1.70;1.40;;;;;;;10.84;77.05;98966.91;7240055;40;20230;31
2023/12/29 22:39:37;;;;;;;3.80;1.50;;;;;;;10.84;76.55;98962.38;7192425;40;20394;31
2023/12/29 22:45:10;;;;;;;3.25;1.50;;;;;;;10.88;76.48;98970.97;7271316;39;20271;31
2023/12/29 22:50:44;;;;;;;2.30;1.30;;;;;;;10.83;76.26;98955.31;7273402;40;20265;31
2023/12/29 22:56:17;;;;;;;3.63;2.07;;;;;;;10.88;76.34;98956.66;7223790;40;20631;31
2023/12/29 23:01:37;;;;;;;5.23;2.40;;;;;;;10.91;75.59;98983.25;7192296;40;20251;31
2023/12/29 23:07:12;;;;;;;3.10;1.95;;;;;;;10.89;76.58;98972.63;7216688;40;20246;31
2023/12/29 23:12:47;;;;;;;8.30;7.10;;;;;;;10.90;76.03;98968.06;7255271;40;20330;31
2023/12/29 23:18:22;;;;;;;5.55;3.15;;;;;;;10.89;76.20;98990.66;7234405;40;20430;31
2023/12/29 23:23:58;;;;;;;5.10;3.30;;;;;;;10.88;76.58;98984.44;7189231;40;20247;31
2023/12/29 23:29:18;;;;;;;3.85;2.70;;;;;;;10.90;77.41;98997.75;7211783;40;20236;31
2023/12/29 23:34:53;;;;;;;3.33;1.90;;;;;;;10.89;76.93;98985.25;7254126;40;20262;31
2023/12/29 23:40:28;;;;;;;5.27;3.50;;;;;;;10.86;77.48;98991.84;7249933;40;20334;31
2023/12/29 23:45:48;;;;;;;2.40;1.50;;;;;;;10.91;77.87;99005.66;7269515;40;20252;31
2023/12/29 23:51:23;;;;;;;4.47;1.83;;;;;;;10.85;77.71;98993.72;7303635;39;20276;31
